sensor_id;sensor_type;location;lat;lon;timestamp;P1;durP1;ratioP1;P2;durP2;ratioP2
34896;SDS011;43407;51.828;-2.298;2022-09-17T00:00:19;1.30;;;1.20;;
34896;SDS011;43407;51.828;-2.298;2022-09-17T00:02:48;1.50;;;1.30;;
34896;SDS011;43407;51.828;-2.298;2022-09-17T00:05:23;1.77;;;1.20;;
34896;SDS011;43407;51.828;-2.298;2022-09-17T00:07:49;1.65;;;1.02;;
34896;SDS011;43407;51.828;-2.298;2022-09-17T00:10:15;1.33;;;1.20;;
34896;SDS011;43407;51.828;-2.298;2022-09-17T00:12:41;1.30;;;1.20;;
34896;SDS011;43407;51.828;-2.298;2022-09-17T00:15:07;1.60;;;1.10;;
34896;SDS011;43407;51.828;-2.298;2022-09-17T00:17:33;1.58;;;1.30;;
34896;SDS011;43407;51.828;-2.298;2022-09-17T00:19:59;2.53;;;1.00;;
34896;SDS011;43407;51.828;-2.298;2022-09-17T00:22:24;2.50;;;1.40;;
34896;SDS011;43407;51.828;-2.298;2022-09-17T00:24:50;2.50;;;1.45;;
34896;SDS011;43407;51.828;-2.298;2022-09-17T00:27:15;1.83;;;1.52;;
34896;SDS011;43407;51.828;-2.298;2022-09-17T00:29:41;1.67;;;1.40;;
34896;SDS011;43407;51.828;-2.298;2022-09-17T00:32:06;2.72;;;1.50;;
34896;SDS011;43407;51.828;-2.298;2022-09-17T00:34:32;2.05;;;1.48;;
34896;SDS011;43407;51.828;-2.298;2022-09-17T00:36:57;2.60;;;1.10;;
34896;SDS011;43407;51.828;-2.298;2022-09-17T00:39:23;1.40;;;1.10;;
34896;SDS011;43407;51.828;-2.298;2022-09-17T00:41:48;2.00;;;1.40;;
34896;SDS011;43407;51.828;-2.298;2022-09-17T00:47:10;1.27;;;1.17;;
34896;SDS011;43407;51.828;-2.298;2022-09-17T00:49:48;2.75;;;1.40;;
34896;SDS011;43407;51.828;-2.298;2022-09-17T00:52:17;1.30;;;1.20;;
34896;SDS011;43407;51.828;-2.298;2022-09-17T00:54:48;1.88;;;1.35;;
34896;SDS011;43407;51.828;-2.298;2022-09-17T00:57:22;2.05;;;1.30;;
34896;SDS011;43407;51.828;-2.298;2022-09-17T00:59:47;1.25;;;1.15;;
34896;SDS011;43407;51.828;-2.298;2022-09-17T01:02:13;1.60;;;1.50;;
34896;SDS011;43407;51.828;-2.298;2022-09-17T01:04:40;2.47;;;1.40;;
34896;SDS011;43407;51.828;-2.298;2022-09-17T01:07:08;2.85;;;1.50;;
34896;SDS011;43407;51.828;-2.298;2022-09-17T01:13:04;4.03;;;1.50;;
34896;SDS011;43407;51.828;-2.298;2022-09-17T01:18:34;1.23;;;1.10;;
34896;SDS011;43407;51.828;-2.298;2022-09-17T01:21:29;2.20;;;1.30;;
34896;SDS011;43407;51.828;-2.298;2022-09-17T01:48:24;1.05;;;1.00;;
34896;SDS011;43407;51.828;-2.298;2022-09-17T01:50:57;0.80;;;0.80;;
34896;SDS011;43407;51.828;-2.298;2022-09-17T01:53:35;1.23;;;1.00;;
34896;SDS011;43407;51.828;-2.298;2022-09-17T01:56:37;1.02;;;0.95;;
34896;SDS011;43407;51.828;-2.298;2022-09-17T01:59:12;0.95;;;0.93;;
34896;SDS011;43407;51.828;-2.298;2022-09-17T02:01:40;1.00;;;1.00;;
34896;SDS011;43407;51.828;-2.298;2022-09-17T02:04:18;1.00;;;0.93;;
34896;SDS011;43407;51.828;-2.298;2022-09-17T02:06:53;1.30;;;1.10;;
34896;SDS011;43407;51.828;-2.298;2022-09-17T02:09:26;1.02;;;0.90;;
34896;SDS011;43407;51.828;-2.298;2022-09-17T02:11:57;1.27;;;1.13;;
34896;SDS011;43407;51.828;-2.298;2022-09-17T02:14:29;1.77;;;1.08;;
34896;SDS011;43407;51.828;-2.298;2022-09-17T02:17:01;0.90;;;0.90;;
34896;SDS011;43407;51.828;-2.298;2022-09-17T02:19:31;0.90;;;0.90;;
34896;SDS011;43407;51.828;-2.298;2022-09-17T02:29:59;2.35;;;1.42;;
34896;SDS011;43407;51.828;-2.298;2022-09-17T02:32:24;1.98;;;1.20;;
34896;SDS011;43407;51.828;-2.298;2022-09-17T02:34:50;1.02;;;1.02;;
34896;SDS011;43407;51.828;-2.298;2022-09-17T02:37:15;3.28;;;1.20;;
34896;SDS011;43407;51.828;-2.298;2022-09-17T02:39:41;1.77;;;0.93;;
34896;SDS011;43407;51.828;-2.298;2022-09-17T02:53:23;1.17;;;1.08;;
34896;SDS011;43407;51.828;-2.298;2022-09-17T02:59:10;1.40;;;1.10;;
34896;SDS011;43407;51.828;-2.298;2022-09-17T03:01:46;1.40;;;1.05;;
34896;SDS011;43407;51.828;-2.298;2022-09-17T03:04:15;1.38;;;1.00;;
34896;SDS011;43407;51.828;-2.298;2022-09-17T03:06:44;4.32;;;1.10;;
34896;SDS011;43407;51.828;-2.298;2022-09-17T03:09:09;3.50;;;1.05;;
34896;SDS011;43407;51.828;-2.298;2022-09-17T03:11:35;1.77;;;1.20;;
34896;SDS011;43407;51.828;-2.298;2022-09-17T03:14:01;1.15;;;1.05;;
34896;SDS011;43407;51.828;-2.298;2022-09-17T03:16:26;1.60;;;1.10;;
34896;SDS011;43407;51.828;-2.298;2022-09-17T03:18:52;0.88;;;0.88;;
34896;SDS011;43407;51.828;-2.298;2022-09-17T03:21:19;1.23;;;1.02;;
34896;SDS011;43407;51.828;-2.298;2022-09-17T03:23:45;1.00;;;1.00;;
34896;SDS011;43407;51.828;-2.298;2022-09-17T03:26:11;2.20;;;1.13;;
34896;SDS011;43407;51.828;-2.298;2022-09-17T03:28:36;1.60;;;1.00;;
34896;SDS011;43407;51.828;-2.298;2022-09-17T03:31:02;1.08;;;1.02;;
34896;SDS011;43407;51.828;-2.298;2022-09-17T03:33:28;1.13;;;1.08;;
34896;SDS011;43407;51.828;-2.298;2022-09-17T03:35:53;0.80;;;0.80;;
34896;SDS011;43407;51.828;-2.298;2022-09-17T03:38:19;1.70;;;1.27;;
34896;SDS011;43407;51.828;-2.298;2022-09-17T03:40:55;1.00;;;0.80;;
34896;SDS011;43407;51.828;-2.298;2022-09-17T03:43:21;1.15;;;0.77;;
34896;SDS011;43407;51.828;-2.298;2022-09-17T03:45:46;2.28;;;1.05;;
34896;SDS011;43407;51.828;-2.298;2022-09-17T03:48:13;1.13;;;0.80;;
34896;SDS011;43407;51.828;-2.298;2022-09-17T03:50:40;1.30;;;0.82;;
34896;SDS011;43407;51.828;-2.298;2022-09-17T03:53:05;1.05;;;0.88;;
34896;SDS011;43407;51.828;-2.298;2022-09-17T03:55:30;1.55;;;0.70;;
34896;SDS011;43407;51.828;-2.298;2022-09-17T03:57:56;0.90;;;0.80;;
34896;SDS011;43407;51.828;-2.298;2022-09-17T04:00:21;1.10;;;0.60;;
34896;SDS011;43407;51.828;-2.298;2022-09-17T04:02:47;1.50;;;0.93;;
34896;SDS011;43407;51.828;-2.298;2022-09-17T04:05:13;0.73;;;0.70;;
34896;SDS011;43407;51.828;-2.298;2022-09-17T04:07:39;1.80;;;1.08;;
34896;SDS011;43407;51.828;-2.298;2022-09-17T04:10:05;1.63;;;0.90;;
34896;SDS011;43407;51.828;-2.298;2022-09-17T04:12:31;0.80;;;0.75;;
34896;SDS011;43407;51.828;-2.298;2022-09-17T04:14:56;1.02;;;0.70;;
34896;SDS011;43407;51.828;-2.298;2022-09-17T04:17:22;1.52;;;0.80;;
34896;SDS011;43407;51.828;-2.298;2022-09-17T04:19:47;0.93;;;0.82;;
34896;SDS011;43407;51.828;-2.298;2022-09-17T04:22:14;0.98;;;0.80;;
34896;SDS011;43407;51.828;-2.298;2022-09-17T04:24:39;0.88;;;0.73;;
34896;SDS011;43407;51.828;-2.298;2022-09-17T04:27:05;1.25;;;0.60;;
34896;SDS011;43407;51.828;-2.298;2022-09-17T04:29:30;1.77;;;0.80;;
34896;SDS011;43407;51.828;-2.298;2022-09-17T04:31:56;0.70;;;0.60;;
34896;SDS011;43407;51.828;-2.298;2022-09-17T04:34:31;0.70;;;0.70;;
34896;SDS011;43407;51.828;-2.298;2022-09-17T04:36:57;1.23;;;1.02;;
34896;SDS011;43407;51.828;-2.298;2022-09-17T04:39:25;1.42;;;0.80;;
34896;SDS011;43407;51.828;-2.298;2022-09-17T04:41:53;1.08;;;0.70;;
34896;SDS011;43407;51.828;-2.298;2022-09-17T04:44:23;1.55;;;0.75;;
34896;SDS011;43407;51.828;-2.298;2022-09-17T04:46:49;1.00;;;0.68;;
34896;SDS011;43407;51.828;-2.298;2022-09-17T04:49:14;0.77;;;0.70;;
34896;SDS011;43407;51.828;-2.298;2022-09-17T04:51:43;2.05;;;0.80;;
34896;SDS011;43407;51.828;-2.298;2022-09-17T04:54:11;1.48;;;0.80;;
34896;SDS011;43407;51.828;-2.298;2022-09-17T04:56:36;1.33;;;0.70;;
34896;SDS011;43407;51.828;-2.298;2022-09-17T04:59:02;0.90;;;0.70;;
34896;SDS011;43407;51.828;-2.298;2022-09-17T05:01:27;0.82;;;0.60;;
34896;SDS011;43407;51.828;-2.298;2022-09-17T05:03:53;0.73;;;0.60;;
34896;SDS011;43407;51.828;-2.298;2022-09-17T05:06:18;0.80;;;0.60;;
34896;SDS011;43407;51.828;-2.298;2022-09-17T05:08:44;0.50;;;0.50;;
34896;SDS011;43407;51.828;-2.298;2022-09-17T05:11:09;1.27;;;0.65;;
34896;SDS011;43407;51.828;-2.298;2022-09-17T05:13:35;0.80;;;0.70;;
34896;SDS011;43407;51.828;-2.298;2022-09-17T05:16:00;1.27;;;0.77;;
34896;SDS011;43407;51.828;-2.298;2022-09-17T05:18:26;0.60;;;0.60;;
34896;SDS011;43407;51.828;-2.298;2022-09-17T05:20:51;0.93;;;0.60;;
34896;SDS011;43407;51.828;-2.298;2022-09-17T05:23:17;1.15;;;0.70;;
34896;SDS011;43407;51.828;-2.298;2022-09-17T05:25:42;0.57;;;0.52;;
34896;SDS011;43407;51.828;-2.298;2022-09-17T05:28:08;0.60;;;0.60;;
34896;SDS011;43407;51.828;-2.298;2022-09-17T05:30:33;0.68;;;0.57;;
34896;SDS011;43407;51.828;-2.298;2022-09-17T05:33:02;0.70;;;0.70;;
34896;SDS011;43407;51.828;-2.298;2022-09-17T05:35:30;0.55;;;0.55;;
34896;SDS011;43407;51.828;-2.298;2022-09-17T05:37:57;0.93;;;0.60;;
34896;SDS011;43407;51.828;-2.298;2022-09-17T05:40:23;0.60;;;0.60;;
34896;SDS011;43407;51.828;-2.298;2022-09-17T05:42:49;0.47;;;0.47;;
34896;SDS011;43407;51.828;-2.298;2022-09-17T05:45:22;0.90;;;0.60;;
34896;SDS011;43407;51.828;-2.298;2022-09-17T05:47:54;0.50;;;0.50;;
34896;SDS011;43407;51.828;-2.298;2022-09-17T05:50:27;0.50;;;0.50;;
34896;SDS011;43407;51.828;-2.298;2022-09-17T05:52:53;3.65;;;0.85;;
34896;SDS011;43407;51.828;-2.298;2022-09-17T05:55:19;0.60;;;0.60;;
34896;SDS011;43407;51.828;-2.298;2022-09-17T05:57:46;1.23;;;0.73;;
34896;SDS011;43407;51.828;-2.298;2022-09-17T06:00:12;0.75;;;0.73;;
34896;SDS011;43407;51.828;-2.298;2022-09-17T06:02:38;1.17;;;0.80;;
34896;SDS011;43407;51.828;-2.298;2022-09-17T06:05:04;1.40;;;0.60;;
34896;SDS011;43407;51.828;-2.298;2022-09-17T06:07:30;1.05;;;0.60;;
34896;SDS011;43407;51.828;-2.298;2022-09-17T06:09:55;0.77;;;0.57;;
34896;SDS011;43407;51.828;-2.298;2022-09-17T06:12:21;1.50;;;0.80;;
34896;SDS011;43407;51.828;-2.298;2022-09-17T06:14:47;1.95;;;1.00;;
34896;SDS011;43407;51.828;-2.298;2022-09-17T06:17:15;0.63;;;0.60;;
34896;SDS011;43407;51.828;-2.298;2022-09-17T06:19:40;0.88;;;0.70;;
34896;SDS011;43407;51.828;-2.298;2022-09-17T06:22:08;0.85;;;0.80;;
34896;SDS011;43407;51.828;-2.298;2022-09-17T06:24:34;0.90;;;0.75;;
34896;SDS011;43407;51.828;-2.298;2022-09-17T06:27:02;0.75;;;0.63;;
34896;SDS011;43407;51.828;-2.298;2022-09-17T06:29:27;0.60;;;0.60;;
34896;SDS011;43407;51.828;-2.298;2022-09-17T06:31:53;1.48;;;0.80;;
34896;SDS011;43407;51.828;-2.298;2022-09-17T06:34:25;2.25;;;0.90;;
34896;SDS011;43407;51.828;-2.298;2022-09-17T06:36:51;1.45;;;0.95;;
34896;SDS011;43407;51.828;-2.298;2022-09-17T06:39:16;0.80;;;0.70;;
34896;SDS011;43407;51.828;-2.298;2022-09-17T06:41:42;1.45;;;0.80;;
34896;SDS011;43407;51.828;-2.298;2022-09-17T06:44:08;1.63;;;0.85;;
34896;SDS011;43407;51.828;-2.298;2022-09-17T06:46:36;1.02;;;0.75;;
34896;SDS011;43407;51.828;-2.298;2022-09-17T06:49:04;0.70;;;0.70;;
34896;SDS011;43407;51.828;-2.298;2022-09-17T06:51:30;0.95;;;0.65;;
34896;SDS011;43407;51.828;-2.298;2022-09-17T06:53:56;1.15;;;0.70;;
34896;SDS011;43407;51.828;-2.298;2022-09-17T06:56:22;1.08;;;0.88;;
34896;SDS011;43407;51.828;-2.298;2022-09-17T06:58:47;0.60;;;0.60;;
34896;SDS011;43407;51.828;-2.298;2022-09-17T07:01:13;1.65;;;0.95;;
34896;SDS011;43407;51.828;-2.298;2022-09-17T07:03:38;1.25;;;0.80;;
34896;SDS011;43407;51.828;-2.298;2022-09-17T07:06:07;0.93;;;0.60;;
34896;SDS011;43407;51.828;-2.298;2022-09-17T07:08:36;0.95;;;0.75;;
34896;SDS011;43407;51.828;-2.298;2022-09-17T07:11:03;1.60;;;0.80;;
34896;SDS011;43407;51.828;-2.298;2022-09-17T07:13:28;1.85;;;0.63;;
34896;SDS011;43407;51.828;-2.298;2022-09-17T07:15:54;1.38;;;0.70;;
34896;SDS011;43407;51.828;-2.298;2022-09-17T07:18:21;0.82;;;0.68;;
34896;SDS011;43407;51.828;-2.298;2022-09-17T07:20:54;1.08;;;0.80;;
34896;SDS011;43407;51.828;-2.298;2022-09-17T07:23:21;0.85;;;0.60;;
34896;SDS011;43407;51.828;-2.298;2022-09-17T07:25:54;0.95;;;0.85;;
34896;SDS011;43407;51.828;-2.298;2022-09-17T07:28:21;1.80;;;0.77;;
34896;SDS011;43407;51.828;-2.298;2022-09-17T07:30:48;0.88;;;0.60;;
34896;SDS011;43407;51.828;-2.298;2022-09-17T07:33:14;0.95;;;0.50;;
34896;SDS011;43407;51.828;-2.298;2022-09-17T07:35:41;1.23;;;0.80;;
34896;SDS011;43407;51.828;-2.298;2022-09-17T07:38:07;1.17;;;0.80;;
34896;SDS011;43407;51.828;-2.298;2022-09-17T07:40:32;3.53;;;0.70;;
34896;SDS011;43407;51.828;-2.298;2022-09-17T07:42:58;1.08;;;0.90;;
34896;SDS011;43407;51.828;-2.298;2022-09-17T07:45:23;1.92;;;0.88;;
34896;SDS011;43407;51.828;-2.298;2022-09-17T07:47:49;0.70;;;0.70;;
34896;SDS011;43407;51.828;-2.298;2022-09-17T07:50:14;0.82;;;0.63;;
34896;SDS011;43407;51.828;-2.298;2022-09-17T07:52:46;2.97;;;0.95;;
34896;SDS011;43407;51.828;-2.298;2022-09-17T07:55:12;1.42;;;0.85;;
34896;SDS011;43407;51.828;-2.298;2022-09-17T07:57:39;0.95;;;0.60;;
34896;SDS011;43407;51.828;-2.298;2022-09-17T08:00:04;1.23;;;0.50;;
34896;SDS011;43407;51.828;-2.298;2022-09-17T08:02:31;0.98;;;0.65;;
34896;SDS011;43407;51.828;-2.298;2022-09-17T08:04:56;1.70;;;0.60;;
34896;SDS011;43407;51.828;-2.298;2022-09-17T08:07:22;2.67;;;0.68;;
34896;SDS011;43407;51.828;-2.298;2022-09-17T08:09:47;1.13;;;0.50;;
34896;SDS011;43407;51.828;-2.298;2022-09-17T08:12:13;1.30;;;0.60;;
34896;SDS011;43407;51.828;-2.298;2022-09-17T08:14:39;1.23;;;0.70;;
34896;SDS011;43407;51.828;-2.298;2022-09-17T08:17:05;1.30;;;0.68;;
34896;SDS011;43407;51.828;-2.298;2022-09-17T08:19:32;1.38;;;0.90;;
34896;SDS011;43407;51.828;-2.298;2022-09-17T08:21:57;1.20;;;0.40;;
34896;SDS011;43407;51.828;-2.298;2022-09-17T08:24:23;1.60;;;0.63;;
34896;SDS011;43407;51.828;-2.298;2022-09-17T08:26:48;2.95;;;0.60;;
34896;SDS011;43407;51.828;-2.298;2022-09-17T08:29:14;3.78;;;0.90;;
34896;SDS011;43407;51.828;-2.298;2022-09-17T08:31:39;3.25;;;0.70;;
34896;SDS011;43407;51.828;-2.298;2022-09-17T08:34:06;1.77;;;0.70;;
34896;SDS011;43407;51.828;-2.298;2022-09-17T08:36:33;1.60;;;0.52;;
34896;SDS011;43407;51.828;-2.298;2022-09-17T08:38:58;6.28;;;0.75;;
34896;SDS011;43407;51.828;-2.298;2022-09-17T08:44:42;2.35;;;0.70;;
34896;SDS011;43407;51.828;-2.298;2022-09-17T08:50:01;1.60;;;0.77;;
34896;SDS011;43407;51.828;-2.298;2022-09-17T09:00:29;1.05;;;0.70;;
34896;SDS011;43407;51.828;-2.298;2022-09-17T09:05:47;4.57;;;1.00;;
34896;SDS011;43407;51.828;-2.298;2022-09-17T09:11:05;3.13;;;0.77;;
34896;SDS011;43407;51.828;-2.298;2022-09-17T09:13:38;2.40;;;1.25;;
34896;SDS011;43407;51.828;-2.298;2022-09-17T09:16:19;3.08;;;0.70;;
34896;SDS011;43407;51.828;-2.298;2022-09-17T09:18:47;1.42;;;0.50;;
34896;SDS011;43407;51.828;-2.298;2022-09-17T09:21:32;3.92;;;0.88;;
34896;SDS011;43407;51.828;-2.298;2022-09-17T09:24:08;2.13;;;0.60;;
34896;SDS011;43407;51.828;-2.298;2022-09-17T09:26:46;1.17;;;0.60;;
34896;SDS011;43407;51.828;-2.298;2022-09-17T09:29:34;1.27;;;0.70;;
34896;SDS011;43407;51.828;-2.298;2022-09-17T09:35:27;1.05;;;0.52;;
34896;SDS011;43407;51.828;-2.298;2022-09-17T09:43:22;2.28;;;0.90;;
34896;SDS011;43407;51.828;-2.298;2022-09-17T09:48:33;2.97;;;1.15;;
34896;SDS011;43407;51.828;-2.298;2022-09-17T09:51:19;2.05;;;0.70;;
34896;SDS011;43407;51.828;-2.298;2022-09-17T09:56:27;1.98;;;1.00;;
34896;SDS011;43407;51.828;-2.298;2022-09-17T09:59:14;2.75;;;0.70;;
34896;SDS011;43407;51.828;-2.298;2022-09-17T10:01:41;0.90;;;0.70;;
34896;SDS011;43407;51.828;-2.298;2022-09-17T10:04:21;1.02;;;0.70;;
34896;SDS011;43407;51.828;-2.298;2022-09-17T10:06:48;0.88;;;0.63;;
34896;SDS011;43407;51.828;-2.298;2022-09-17T10:09:16;1.05;;;0.60;;
34896;SDS011;43407;51.828;-2.298;2022-09-17T10:14:30;2.00;;;0.60;;
34896;SDS011;43407;51.828;-2.298;2022-09-17T10:25:06;0.85;;;0.40;;
34896;SDS011;43407;51.828;-2.298;2022-09-17T10:27:42;1.48;;;0.52;;
34896;SDS011;43407;51.828;-2.298;2022-09-17T10:30:16;1.20;;;0.60;;
34896;SDS011;43407;51.828;-2.298;2022-09-17T10:32:43;0.57;;;0.52;;
34896;SDS011;43407;51.828;-2.298;2022-09-17T10:37:47;3.25;;;0.70;;
34896;SDS011;43407;51.828;-2.298;2022-09-17T10:42:49;1.42;;;0.57;;
34896;SDS011;43407;51.828;-2.298;2022-09-17T10:47:48;1.13;;;0.60;;
34896;SDS011;43407;51.828;-2.298;2022-09-17T10:50:15;1.80;;;0.50;;
34896;SDS011;43407;51.828;-2.298;2022-09-17T10:52:53;1.27;;;0.60;;
34896;SDS011;43407;51.828;-2.298;2022-09-17T10:58:32;2.63;;;0.80;;
34896;SDS011;43407;51.828;-2.298;2022-09-17T11:17:34;1.80;;;0.60;;
34896;SDS011;43407;51.828;-2.298;2022-09-17T11:20:29;0.80;;;0.50;;
34896;SDS011;43407;51.828;-2.298;2022-09-17T11:34:37;1.40;;;0.50;;
34896;SDS011;43407;51.828;-2.298;2022-09-17T11:37:25;1.37;;;0.60;;
34896;SDS011;43407;51.828;-2.298;2022-09-17T11:42:50;4.28;;;0.60;;
34896;SDS011;43407;51.828;-2.298;2022-09-17T11:45:21;1.40;;;0.80;;
34896;SDS011;43407;51.828;-2.298;2022-09-17T11:48:02;2.17;;;0.82;;
34896;SDS011;43407;51.828;-2.298;2022-09-17T11:56:04;1.55;;;0.50;;
34896;SDS011;43407;51.828;-2.298;2022-09-17T12:04:15;0.60;;;0.50;;
34896;SDS011;43407;51.828;-2.298;2022-09-17T12:06:43;3.47;;;0.68;;
34896;SDS011;43407;51.828;-2.298;2022-09-17T12:09:15;0.33;;;0.30;;
34896;SDS011;43407;51.828;-2.298;2022-09-17T12:11:58;1.10;;;0.70;;
34896;SDS011;43407;51.828;-2.298;2022-09-17T12:14:46;2.08;;;0.70;;
34896;SDS011;43407;51.828;-2.298;2022-09-17T12:17:22;3.40;;;0.95;;
34896;SDS011;43407;51.828;-2.298;2022-09-17T12:19:55;0.60;;;0.50;;
34896;SDS011;43407;51.828;-2.298;2022-09-17T12:22:32;1.33;;;0.57;;
34896;SDS011;43407;51.828;-2.298;2022-09-17T12:25:00;1.05;;;0.60;;
34896;SDS011;43407;51.828;-2.298;2022-09-17T12:30:21;3.15;;;0.77;;
34896;SDS011;43407;51.828;-2.298;2022-09-17T12:52:32;1.85;;;0.65;;
34896;SDS011;43407;51.828;-2.298;2022-09-17T12:55:07;1.70;;;0.60;;
34896;SDS011;43407;51.828;-2.298;2022-09-17T13:00:25;2.45;;;0.60;;
34896;SDS011;43407;51.828;-2.298;2022-09-17T13:17:16;0.77;;;0.40;;
34896;SDS011;43407;51.828;-2.298;2022-09-17T13:20:19;1.83;;;0.57;;
34896;SDS011;43407;51.828;-2.298;2022-09-17T13:22:49;2.10;;;0.70;;
34896;SDS011;43407;51.828;-2.298;2022-09-17T13:25:16;1.05;;;0.60;;
34896;SDS011;43407;51.828;-2.298;2022-09-17T13:27:44;1.17;;;0.50;;
34896;SDS011;43407;51.828;-2.298;2022-09-17T13:30:11;0.98;;;0.47;;
34896;SDS011;43407;51.828;-2.298;2022-09-17T13:32:41;1.48;;;0.73;;
34896;SDS011;43407;51.828;-2.298;2022-09-17T13:48:25;1.63;;;0.63;;
34896;SDS011;43407;51.828;-2.298;2022-09-17T13:50:53;0.68;;;0.40;;
34896;SDS011;43407;51.828;-2.298;2022-09-17T13:53:19;0.63;;;0.40;;
34896;SDS011;43407;51.828;-2.298;2022-09-17T13:58:23;1.55;;;0.57;;
34896;SDS011;43407;51.828;-2.298;2022-09-17T14:05:55;0.40;;;0.30;;
34896;SDS011;43407;51.828;-2.298;2022-09-17T14:13:48;0.50;;;0.32;;
34896;SDS011;43407;51.828;-2.298;2022-09-17T14:18:59;0.45;;;0.40;;
34896;SDS011;43407;51.828;-2.298;2022-09-17T14:21:31;1.00;;;0.45;;
34896;SDS011;43407;51.828;-2.298;2022-09-17T14:24:01;1.67;;;0.50;;
34896;SDS011;43407;51.828;-2.298;2022-09-17T14:29:00;0.90;;;0.43;;
34896;SDS011;43407;51.828;-2.298;2022-09-17T14:31:33;0.73;;;0.43;;
34896;SDS011;43407;51.828;-2.298;2022-09-17T14:34:04;0.80;;;0.40;;
34896;SDS011;43407;51.828;-2.298;2022-09-17T14:36:31;1.42;;;0.40;;
34896;SDS011;43407;51.828;-2.298;2022-09-17T14:39:01;0.45;;;0.38;;
34896;SDS011;43407;51.828;-2.298;2022-09-17T14:41:29;0.30;;;0.30;;
34896;SDS011;43407;51.828;-2.298;2022-09-17T14:44:05;1.23;;;0.40;;
34896;SDS011;43407;51.828;-2.298;2022-09-17T14:49:22;0.98;;;0.50;;
34896;SDS011;43407;51.828;-2.298;2022-09-17T14:51:49;0.57;;;0.30;;
34896;SDS011;43407;51.828;-2.298;2022-09-17T14:54:27;0.52;;;0.32;;
34896;SDS011;43407;51.828;-2.298;2022-09-17T14:56:54;0.60;;;0.40;;
34896;SDS011;43407;51.828;-2.298;2022-09-17T15:05:20;1.50;;;0.30;;
34896;SDS011;43407;51.828;-2.298;2022-09-17T15:08:03;0.70;;;0.40;;
34896;SDS011;43407;51.828;-2.298;2022-09-17T15:10:43;0.88;;;0.40;;
34896;SDS011;43407;51.828;-2.298;2022-09-17T15:13:35;0.63;;;0.40;;
34896;SDS011;43407;51.828;-2.298;2022-09-17T15:16:22;0.68;;;0.40;;
34896;SDS011;43407;51.828;-2.298;2022-09-17T15:19:00;0.82;;;0.40;;
34896;SDS011;43407;51.828;-2.298;2022-09-17T15:21:32;0.33;;;0.30;;
34896;SDS011;43407;51.828;-2.298;2022-09-17T15:26:44;0.20;;;0.20;;
34896;SDS011;43407;51.828;-2.298;2022-09-17T15:29:16;0.50;;;0.40;;
34896;SDS011;43407;51.828;-2.298;2022-09-17T15:31:45;1.02;;;0.40;;
34896;SDS011;43407;51.828;-2.298;2022-09-17T15:34:11;0.95;;;0.40;;
34896;SDS011;43407;51.828;-2.298;2022-09-17T15:36:37;1.20;;;0.70;;
34896;SDS011;43407;51.828;-2.298;2022-09-17T15:39:26;1.00;;;0.32;;
34896;SDS011;43407;51.828;-2.298;2022-09-17T15:41:55;0.82;;;0.30;;
34896;SDS011;43407;51.828;-2.298;2022-09-17T15:44:22;0.60;;;0.32;;
34896;SDS011;43407;51.828;-2.298;2022-09-17T15:46:50;0.73;;;0.45;;
34896;SDS011;43407;51.828;-2.298;2022-09-17T15:49:26;1.13;;;0.40;;
34896;SDS011;43407;51.828;-2.298;2022-09-17T15:55:03;0.73;;;0.30;;
34896;SDS011;43407;51.828;-2.298;2022-09-17T15:57:32;0.77;;;0.38;;
34896;SDS011;43407;51.828;-2.298;2022-09-17T16:00:10;0.68;;;0.47;;
34896;SDS011;43407;51.828;-2.298;2022-09-17T16:02:42;0.77;;;0.40;;
34896;SDS011;43407;51.828;-2.298;2022-09-17T16:07:45;0.32;;;0.32;;
34896;SDS011;43407;51.828;-2.298;2022-09-17T16:10:13;0.38;;;0.30;;
34896;SDS011;43407;51.828;-2.298;2022-09-17T16:12:44;0.55;;;0.30;;
34896;SDS011;43407;51.828;-2.298;2022-09-17T16:15:18;0.43;;;0.32;;
34896;SDS011;43407;51.828;-2.298;2022-09-17T16:17:45;0.63;;;0.60;;
34896;SDS011;43407;51.828;-2.298;2022-09-17T16:22:38;1.13;;;0.50;;
34896;SDS011;43407;51.828;-2.298;2022-09-17T16:25:06;1.05;;;0.40;;
34896;SDS011;43407;51.828;-2.298;2022-09-17T16:27:42;0.30;;;0.30;;
34896;SDS011;43407;51.828;-2.298;2022-09-17T16:30:31;0.60;;;0.30;;
34896;SDS011;43407;51.828;-2.298;2022-09-17T16:32:57;0.60;;;0.32;;
34896;SDS011;43407;51.828;-2.298;2022-09-17T16:35:24;0.77;;;0.38;;
34896;SDS011;43407;51.828;-2.298;2022-09-17T16:37:51;2.08;;;0.60;;
34896;SDS011;43407;51.828;-2.298;2022-09-17T16:40:18;1.23;;;0.50;;
34896;SDS011;43407;51.828;-2.298;2022-09-17T16:43:02;0.75;;;0.50;;
34896;SDS011;43407;51.828;-2.298;2022-09-17T16:45:28;0.93;;;0.38;;
34896;SDS011;43407;51.828;-2.298;2022-09-17T16:47:54;0.95;;;0.40;;
34896;SDS011;43407;51.828;-2.298;2022-09-17T16:50:22;0.52;;;0.40;;
34896;SDS011;43407;51.828;-2.298;2022-09-17T16:52:48;0.40;;;0.40;;
34896;SDS011;43407;51.828;-2.298;2022-09-17T16:55:17;0.40;;;0.40;;
34896;SDS011;43407;51.828;-2.298;2022-09-17T16:57:50;2.35;;;0.50;;
34896;SDS011;43407;51.828;-2.298;2022-09-17T17:00:17;0.85;;;0.40;;
34896;SDS011;43407;51.828;-2.298;2022-09-17T17:02:50;0.40;;;0.30;;
34896;SDS011;43407;51.828;-2.298;2022-09-17T17:05:25;0.38;;;0.30;;
34896;SDS011;43407;51.828;-2.298;2022-09-17T17:07:53;0.60;;;0.50;;
34896;SDS011;43407;51.828;-2.298;2022-09-17T17:10:22;0.40;;;0.40;;
34896;SDS011;43407;51.828;-2.298;2022-09-17T17:12:53;1.05;;;0.40;;
34896;SDS011;43407;51.828;-2.298;2022-09-17T17:15:21;1.77;;;0.50;;
34896;SDS011;43407;51.828;-2.298;2022-09-17T17:17:47;0.63;;;0.52;;
34896;SDS011;43407;51.828;-2.298;2022-09-17T17:20:16;1.00;;;0.30;;
34896;SDS011;43407;51.828;-2.298;2022-09-17T17:22:49;0.50;;;0.50;;
34896;SDS011;43407;51.828;-2.298;2022-09-17T17:25:16;0.50;;;0.50;;
34896;SDS011;43407;51.828;-2.298;2022-09-17T17:27:51;1.48;;;0.30;;
34896;SDS011;43407;51.828;-2.298;2022-09-17T17:30:35;0.30;;;0.30;;
34896;SDS011;43407;51.828;-2.298;2022-09-17T17:33:03;0.60;;;0.33;;
34896;SDS011;43407;51.828;-2.298;2022-09-17T17:35:31;1.45;;;0.40;;
34896;SDS011;43407;51.828;-2.298;2022-09-17T17:37:59;0.50;;;0.40;;
34896;SDS011;43407;51.828;-2.298;2022-09-17T17:40:25;0.45;;;0.25;;
34896;SDS011;43407;51.828;-2.298;2022-09-17T17:43:16;0.85;;;0.30;;
34896;SDS011;43407;51.828;-2.298;2022-09-17T17:45:42;0.90;;;0.40;;
34896;SDS011;43407;51.828;-2.298;2022-09-17T17:48:10;0.95;;;0.57;;
34896;SDS011;43407;51.828;-2.298;2022-09-17T17:50:35;0.47;;;0.40;;
34896;SDS011;43407;51.828;-2.298;2022-09-17T17:53:04;0.30;;;0.30;;
34896;SDS011;43407;51.828;-2.298;2022-09-17T17:55:32;0.88;;;0.50;;
34896;SDS011;43407;51.828;-2.298;2022-09-17T17:58:00;0.50;;;0.47;;
34896;SDS011;43407;51.828;-2.298;2022-09-17T18:00:25;0.40;;;0.40;;
34896;SDS011;43407;51.828;-2.298;2022-09-17T18:02:51;0.70;;;0.43;;
34896;SDS011;43407;51.828;-2.298;2022-09-17T18:05:16;0.20;;;0.20;;
34896;SDS011;43407;51.828;-2.298;2022-09-17T18:07:42;0.40;;;0.40;;
34896;SDS011;43407;51.828;-2.298;2022-09-17T18:10:08;0.75;;;0.50;;
34896;SDS011;43407;51.828;-2.298;2022-09-17T18:12:33;0.68;;;0.40;;
34896;SDS011;43407;51.828;-2.298;2022-09-17T18:15:01;0.30;;;0.30;;
34896;SDS011;43407;51.828;-2.298;2022-09-17T18:17:29;0.75;;;0.40;;
34896;SDS011;43407;51.828;-2.298;2022-09-17T18:19:55;0.75;;;0.50;;
34896;SDS011;43407;51.828;-2.298;2022-09-17T18:22:23;2.45;;;0.50;;
34896;SDS011;43407;51.828;-2.298;2022-09-17T18:24:51;0.65;;;0.50;;
34896;SDS011;43407;51.828;-2.298;2022-09-17T18:27:16;0.68;;;0.50;;
34896;SDS011;43407;51.828;-2.298;2022-09-17T18:29:42;0.47;;;0.43;;
34896;SDS011;43407;51.828;-2.298;2022-09-17T18:32:07;2.20;;;0.52;;
34896;SDS011;43407;51.828;-2.298;2022-09-17T18:34:33;1.38;;;0.45;;
34896;SDS011;43407;51.828;-2.298;2022-09-17T18:37:00;0.90;;;0.50;;
34896;SDS011;43407;51.828;-2.298;2022-09-17T18:39:25;0.80;;;0.60;;
34896;SDS011;43407;51.828;-2.298;2022-09-17T18:41:51;1.45;;;0.50;;
34896;SDS011;43407;51.828;-2.298;2022-09-17T18:44:16;1.85;;;0.55;;
34896;SDS011;43407;51.828;-2.298;2022-09-17T18:46:45;0.50;;;0.50;;
34896;SDS011;43407;51.828;-2.298;2022-09-17T18:49:13;1.52;;;0.60;;